createdAt,value
2022-08-07T00:02:35.609Z,100109.50
2022-08-07T00:04:05.879Z,100096.03
2022-08-07T00:06:33.883Z,100074.13
2022-08-07T00:09:16.147Z,100106.63
2022-08-07T00:11:54.476Z,100099.53
2022-08-07T00:14:29.974Z,100100.41
2022-08-07T00:17:01.938Z,100103.69
2022-08-07T00:19:34.038Z,100087.28
2022-08-07T00:22:02.074Z,100070.06
2022-08-07T00:24:31.700Z,100101.53
2022-08-07T00:27:07.184Z,100099.31
2022-08-07T00:29:37.027Z,100095.81
2022-08-07T00:32:06.749Z,100101.03
2022-08-07T00:34:33.699Z,100106.00
2022-08-07T00:37:05.082Z,100098.06
2022-08-07T00:39:33.806Z,100108.84
2022-08-07T00:42:02.270Z,100097.13
2022-08-07T00:44:33.144Z,100109.53
2022-08-07T00:47:04.112Z,100105.47
2022-08-07T00:50:19.402Z,100110.13
2022-08-07T00:52:20.339Z,100103.91
2022-08-07T00:54:53.758Z,100104.75
2022-08-07T00:57:26.100Z,100111.09
2022-08-07T00:59:54.894Z,100124.38
2022-08-07T01:02:28.648Z,100101.66
2022-08-07T01:04:58.791Z,100117.31
2022-08-07T01:07:29.529Z,100119.84
2022-08-07T01:10:04.492Z,100114.91
2022-08-07T01:12:35.620Z,100122.00
2022-08-07T01:15:04.393Z,100119.72
2022-08-07T01:17:32.562Z,100118.44
2022-08-07T01:20:08.278Z,100112.50
2022-08-07T01:22:37.734Z,100118.19
2022-08-07T01:25:53.944Z,100119.78
2022-08-07T01:28:01.701Z,100110.88
2022-08-07T01:30:30.096Z,100131.50
2022-08-07T01:32:57.351Z,100104.47
2022-08-07T01:35:25.684Z,100113.94
2022-08-07T01:38:12.844Z,100084.66
2022-08-07T01:40:52.988Z,100128.31
2022-08-07T01:43:20.613Z,100127.44
2022-08-07T01:45:48.198Z,100102.59
2022-08-07T01:48:30.364Z,100099.34
2022-08-07T01:51:24.559Z,100128.78
2022-08-07T01:54:09.385Z,100127.78
2022-08-07T01:58:00.932Z,100131.03
2022-08-07T02:00:12.935Z,100128.19
2022-08-07T02:03:18.274Z,100129.91
2022-08-07T02:06:00.036Z,100118.94
2022-08-07T02:08:31.521Z,100132.72
2022-08-07T02:11:00.839Z,100135.69
2022-08-07T02:13:58.087Z,100121.56
2022-08-07T02:16:28.852Z,100142.16
2022-08-07T02:20:05.245Z,100120.34
2022-08-07T02:21:58.540Z,100129.28
2022-08-07T02:24:29.289Z,100132.47
2022-08-07T02:27:00.093Z,100135.56
2022-08-07T02:29:28.900Z,100133.56
2022-08-07T02:31:57.959Z,100136.97
2022-08-07T02:34:27.864Z,100147.56
2022-08-07T02:36:58.071Z,100145.09
2022-08-07T02:39:42.855Z,100112.00
2022-08-07T02:42:16.276Z,100110.00
2022-08-07T02:44:47.783Z,100120.16
2022-08-07T02:47:19.584Z,100110.19
2022-08-07T02:49:55.919Z,100125.44
2022-08-07T02:52:53.248Z,100119.00
2022-08-07T02:55:28.297Z,100153.06
2022-08-07T02:58:17.375Z,100152.59
2022-08-07T03:00:55.133Z,100148.88
2022-08-07T03:03:49.341Z,100133.47
2022-08-07T03:06:25.981Z,100124.25
2022-08-07T03:09:01.780Z,100145.75
2022-08-07T03:11:32.865Z,100129.94
2022-08-07T03:14:08.637Z,100126.78
2022-08-07T03:16:36.051Z,100148.63
2022-08-07T03:19:05.875Z,100138.56
2022-08-07T03:21:35.301Z,100164.81
2022-08-07T03:24:19.630Z,100155.41
2022-08-07T03:26:58.624Z,100155.09
2022-08-07T03:29:33.716Z,100140.41
2022-08-07T03:32:06.849Z,100139.91
2022-08-07T03:34:39.163Z,100163.50
2022-08-07T03:37:12.250Z,100152.06
2022-08-07T03:39:59.373Z,100170.56
2022-08-07T03:42:27.449Z,100139.28
2022-08-07T03:44:58.071Z,100152.88
2022-08-07T03:47:28.066Z,100142.06
2022-08-07T03:49:59.950Z,100147.91
2022-08-07T03:52:29.899Z,100176.63
2022-08-07T03:55:06.781Z,100163.25
2022-08-07T03:58:33.470Z,100171.53
2022-08-07T04:00:30.125Z,100169.44
2022-08-07T04:02:59.692Z,100172.38
2022-08-07T04:05:40.471Z,100185.78
2022-08-07T04:08:16.196Z,100183.03
2022-08-07T04:10:54.795Z,100186.81
2022-08-07T04:14:10.248Z,100193.31
2022-08-07T04:16:30.800Z,100202.03
2022-08-07T04:19:03.902Z,100166.22
2022-08-07T04:21:33.595Z,100198.19
2022-08-07T04:24:07.319Z,100177.78
2022-08-07T04:26:35.010Z,100172.72
2022-08-07T04:29:03.097Z,100204.47
2022-08-07T04:31:39.167Z,100203.63
2022-08-07T04:34:27.321Z,100200.28
2022-08-07T04:37:01.099Z,100184.09
2022-08-07T04:39:35.869Z,100193.22
2022-08-07T04:42:04.181Z,100201.31
2022-08-07T04:44:31.205Z,100198.31
2022-08-07T04:47:09.682Z,100216.25
2022-08-07T04:49:57.916Z,100204.78
2022-08-07T04:52:52.906Z,100216.03
2022-08-07T04:58:16.617Z,100222.38
2022-08-07T05:00:09.634Z,100223.66
2022-08-07T05:02:24.345Z,100238.84
2022-08-07T05:05:01.063Z,100220.88
2022-08-07T05:07:44.254Z,100236.94
2022-08-07T05:10:29.312Z,100238.22
2022-08-07T05:13:10.109Z,100230.63
2022-08-07T05:15:53.786Z,100240.38
2022-08-07T05:18:27.241Z,100241.69
2022-08-07T05:21:02.429Z,100235.81
2022-08-07T05:23:39.837Z,100241.13
2022-08-07T05:26:18.729Z,100239.53
2022-08-07T05:28:55.670Z,100253.09
2022-08-07T05:31:34.625Z,100249.69
2022-08-07T05:34:05.596Z,100244.69
2022-08-07T05:36:42.358Z,100269.16
2022-08-07T05:40:04.981Z,100260.19
2022-08-07T05:42:01.227Z,100261.97
2022-08-07T05:44:35.490Z,100269.41
2022-08-07T05:47:17.785Z,100270.56
2022-08-07T05:49:49.013Z,100255.53
2022-08-07T05:52:32.276Z,100270.94
2022-08-07T05:55:07.244Z,100286.31
2022-08-07T05:57:42.119Z,100266.03
2022-08-07T06:00:16.087Z,100297.97
2022-08-07T06:02:48.002Z,100286.19
2022-08-07T06:05:16.134Z,100276.16
2022-08-07T06:08:14.571Z,100279.13
2022-08-07T06:10:31.586Z,100290.66
2022-08-07T06:13:01.047Z,100281.31
2022-08-07T06:15:42.081Z,100287.72
2022-08-07T06:18:12.217Z,100305.09
2022-08-07T06:20:50.350Z,100302.44
2022-08-07T06:24:38.584Z,100302.56
2022-08-07T06:26:20.938Z,100298.59
2022-08-07T06:28:55.306Z,100307.38
2022-08-07T06:31:24.171Z,100311.59
2022-08-07T06:34:08.393Z,100299.50
2022-08-07T06:36:38.969Z,100301.44
2022-08-07T06:40:15.858Z,100311.03
2022-08-07T06:42:06.450Z,100305.66
2022-08-07T06:44:39.787Z,100329.41
2022-08-07T06:47:12.552Z,100313.66
2022-08-07T06:49:52.339Z,100319.94
2022-08-07T06:52:35.774Z,100321.31
2022-08-07T06:55:33.521Z,100318.22
2022-08-07T06:58:10.494Z,100298.00
2022-08-07T07:00:42.355Z,100321.59
2022-08-07T07:03:14.396Z,100325.13
2022-08-07T07:06:05.453Z,100327.69
2022-08-07T07:08:33.532Z,100323.47
2022-08-07T07:11:13.097Z,100314.31
2022-08-07T07:13:58.357Z,100312.47
2022-08-07T07:16:39.206Z,100288.44
2022-08-07T07:19:54.670Z,100298.19
2022-08-07T07:22:33.785Z,100279.38
2022-08-07T07:25:14.205Z,100327.81
2022-08-07T07:28:42.776Z,100321.50
2022-08-07T07:31:30.452Z,100315.41
2022-08-07T07:34:09.649Z,100316.22
2022-08-07T07:36:40.523Z,100304.63
2022-08-07T07:39:09.217Z,100319.50
2022-08-07T07:42:02.337Z,100321.66
2022-08-07T07:44:29.269Z,100284.03
2022-08-07T07:47:12.080Z,100325.28
2022-08-07T07:50:32.443Z,100307.66
2022-08-07T07:52:35.973Z,100316.06
2022-08-07T07:55:07.970Z,100303.94
2022-08-07T07:57:51.816Z,100284.84
2022-08-07T08:00:29.507Z,100323.88
2022-08-07T08:03:08.088Z,100310.50
2022-08-07T08:05:50.468Z,100307.03
2022-08-07T08:08:34.602Z,100314.66
2022-08-07T08:11:09.261Z,100306.88
2022-08-07T08:13:54.348Z,100309.13
2022-08-07T08:16:32.763Z,100309.56
2022-08-07T08:19:09.644Z,100310.75
2022-08-07T08:22:07.841Z,100319.28
2022-08-07T08:25:09.404Z,100318.47
2022-08-07T08:27:56.380Z,100322.72
2022-08-07T08:30:26.064Z,100320.97
2022-08-07T08:32:54.651Z,100318.06
2022-08-07T08:35:28.631Z,100313.66
2022-08-07T08:38:04.746Z,100316.63
2022-08-07T08:40:43.771Z,100320.50
2022-08-07T08:43:42.282Z,100326.31
2022-08-07T08:46:25.327Z,100328.00
2022-08-07T08:49:32.886Z,100314.03
2022-08-07T08:52:14.325Z,100319.41
2022-08-07T08:55:01.204Z,100328.56
2022-08-07T08:57:47.925Z,100330.19
2022-08-07T09:00:17.390Z,100313.59
2022-08-07T09:03:14.918Z,100310.78
2022-08-07T09:05:55.076Z,100326.72
2022-08-07T09:08:39.278Z,100317.47
2022-08-07T09:11:43.423Z,100322.72
2022-08-07T09:14:15.171Z,100332.59
2022-08-07T09:17:07.914Z,100321.50
2022-08-07T09:20:02.338Z,100324.88
2022-08-07T09:24:32.557Z,100324.28
2022-08-07T09:26:08.077Z,100323.06
2022-08-07T09:30:03.367Z,100324.25
2022-08-07T09:31:50.532Z,100330.44
2022-08-07T09:34:53.705Z,100329.44
2022-08-07T09:37:54.250Z,100326.06
2022-08-07T09:40:42.847Z,100322.38
2022-08-07T09:44:03.254Z,100318.09
2022-08-07T09:47:24.304Z,100315.44
2022-08-07T09:50:01.949Z,100302.47
2022-08-07T09:52:48.565Z,100307.03
2022-08-07T09:56:02.394Z,100300.81
2022-08-07T09:59:07.594Z,100297.72
2022-08-07T10:02:05.330Z,100293.84
2022-08-07T10:04:45.868Z,100289.75
2022-08-07T10:07:52.335Z,100285.34
2022-08-07T10:10:53.871Z,100281.28
2022-08-07T10:13:54.908Z,100278.13
2022-08-07T10:16:30.717Z,100273.41
2022-08-07T10:19:52.524Z,100271.44
2022-08-07T10:23:07.571Z,100274.91
2022-08-07T10:26:07.419Z,100268.22
2022-08-07T10:28:50.882Z,100270.06
2022-08-07T10:31:56.150Z,100281.34
2022-08-07T10:34:45.342Z,100281.59
2022-08-07T10:37:59.876Z,100280.25
2022-08-07T10:40:43.334Z,100276.69
2022-08-07T10:43:13.038Z,100258.59
2022-08-07T10:45:58.284Z,100266.94
2022-08-07T10:48:48.871Z,100241.75
2022-08-07T10:51:57.250Z,100233.91
2022-08-07T10:54:18.630Z,100252.31
2022-08-07T10:57:00.566Z,100252.78
2022-08-07T11:00:09.032Z,100254.31
2022-08-07T11:03:03.620Z,100246.03
2022-08-07T11:06:02.993Z,100250.03
2022-08-07T11:08:39.933Z,100228.06
2022-08-07T11:11:24.512Z,100236.09
2022-08-07T11:14:43.409Z,100246.94
2022-08-07T11:16:54.735Z,100231.38
2022-08-07T11:19:51.917Z,100228.56
2022-08-07T11:22:46.293Z,100231.94
2022-08-07T11:25:16.408Z,100212.50
2022-08-07T11:28:02.405Z,100219.50
2022-08-07T11:31:13.501Z,100221.97
2022-08-07T11:34:04.142Z,100216.59
2022-08-07T11:37:24.538Z,100212.31
2022-08-07T11:40:24.522Z,100226.44
2022-08-07T11:43:04.338Z,100226.06
2022-08-07T11:46:08.357Z,100214.63
2022-08-07T11:49:50.777Z,100206.59
2022-08-07T11:52:29.344Z,100215.63
2022-08-07T11:55:19.015Z,100209.25
2022-08-07T11:58:16.513Z,100211.63
2022-08-07T12:01:22.265Z,100208.63
2022-08-07T12:04:04.724Z,100205.81
2022-08-07T12:06:51.805Z,100200.88
2022-08-07T12:09:51.066Z,100206.41
2022-08-07T12:12:24.363Z,100208.75
2022-08-07T12:15:01.266Z,100212.84
2022-08-07T12:17:58.860Z,100210.84
2022-08-07T12:20:46.410Z,100216.91
2022-08-07T12:24:04.921Z,100221.38
2022-08-07T12:26:40.545Z,100205.38
2022-08-07T12:29:37.787Z,100206.19
2022-08-07T12:32:20.988Z,100215.59
2022-08-07T12:34:56.223Z,100214.00
2022-08-07T12:37:28.311Z,100214.31
2022-08-07T12:40:46.809Z,100205.44
2022-08-07T12:43:10.114Z,100204.66
2022-08-07T12:46:08.195Z,100212.13
2022-08-07T12:48:55.090Z,100169.16
2022-08-07T12:51:46.561Z,100206.34
2022-08-07T12:54:37.878Z,100201.84
2022-08-07T12:57:09.686Z,100183.78
2022-08-07T12:59:54.939Z,100191.53
2022-08-07T13:02:37.714Z,100200.31
2022-08-07T13:06:04.429Z,100198.06
2022-08-07T13:08:18.858Z,100195.91
2022-08-07T13:11:16.131Z,100193.56
2022-08-07T13:14:19.216Z,100196.66
2022-08-07T13:17:02.420Z,100182.91
2022-08-07T13:20:04.888Z,100182.88
2022-08-07T13:22:40.096Z,100182.41
2022-08-07T13:25:29.629Z,100166.66
2022-08-07T13:28:11.281Z,100176.88
2022-08-07T13:30:48.977Z,100172.94
2022-08-07T13:34:31.001Z,100178.75
2022-08-07T13:36:28.710Z,100156.75
2022-08-07T13:40:34.291Z,100184.97
2022-08-07T13:42:27.993Z,100169.03
2022-08-07T13:45:40.632Z,100146.16
2022-08-07T13:48:08.125Z,100153.47
2022-08-07T13:51:00.141Z,100147.66
2022-08-07T13:53:24.034Z,100137.41
2022-08-07T13:55:54.326Z,100149.63
2022-08-07T13:58:56.308Z,100149.63
2022-08-07T14:01:51.215Z,100153.19
2022-08-07T14:04:29.731Z,100143.84
2022-08-07T14:07:09.616Z,100137.53
2022-08-07T14:10:16.503Z,100138.56
2022-08-07T14:12:36.162Z,100137.69
2022-08-07T14:15:16.710Z,100145.88
2022-08-07T14:18:15.800Z,100137.06
2022-08-07T14:20:49.091Z,100142.38
2022-08-07T14:23:59.278Z,100136.25
2022-08-07T14:26:28.495Z,100138.84
2022-08-07T14:29:08.517Z,100119.59
2022-08-07T14:31:56.110Z,100130.09
2022-08-07T14:34:32.018Z,100140.56
2022-08-07T14:37:03.185Z,100132.28
2022-08-07T14:40:15.784Z,100132.94
2022-08-07T14:42:31.347Z,100136.34
2022-08-07T14:45:21.766Z,100111.97
2022-08-07T14:47:53.069Z,100141.94
2022-08-07T14:50:27.988Z,100133.66
2022-08-07T14:52:57.210Z,100130.22
2022-08-07T14:55:35.863Z,100110.22
2022-08-07T14:58:31.778Z,100116.34
2022-08-07T15:01:22.031Z,100131.13
2022-08-07T15:03:53.415Z,100130.94
2022-08-07T15:06:29.301Z,100128.22
2022-08-07T15:09:58.953Z,100133.78
2022-08-07T15:12:01.580Z,100137.44
2022-08-07T15:14:30.861Z,100137.94
2022-08-07T15:17:00.593Z,100133.47
2022-08-07T15:20:30.339Z,100129.78
2022-08-07T15:22:31.447Z,100117.81
2022-08-07T15:25:18.504Z,100116.13
2022-08-07T15:28:33.019Z,100126.09
2022-08-07T15:31:05.238Z,100126.34
2022-08-07T15:33:38.632Z,100126.00
2022-08-07T15:36:10.669Z,100129.53
2022-08-07T15:38:51.460Z,100126.25
2022-08-07T15:42:46.871Z,100111.91
2022-08-07T15:44:23.597Z,100109.44
2022-08-07T15:50:05.634Z,100117.25
2022-08-07T15:52:36.605Z,100088.75
2022-08-07T15:55:09.007Z,100112.44
2022-08-07T15:57:48.544Z,100090.78
2022-08-07T16:00:32.233Z,100120.38
2022-08-07T16:03:05.349Z,100114.38
2022-08-07T16:05:34.528Z,100103.72
2022-08-07T16:08:31.978Z,100103.34
2022-08-07T16:11:33.807Z,100102.59
2022-08-07T16:14:19.920Z,100108.78
2022-08-07T16:18:02.030Z,100112.03
2022-08-07T16:20:33.494Z,100105.13
2022-08-07T16:23:53.019Z,100096.50
2022-08-07T16:26:06.794Z,100094.66
2022-08-07T16:30:09.272Z,100103.44
2022-08-07T16:31:58.542Z,100100.44
2022-08-07T16:34:48.301Z,100095.06
2022-08-07T16:38:03.448Z,100097.09
2022-08-07T16:40:33.329Z,100100.03
2022-08-07T16:43:21.782Z,100098.69
2022-08-07T16:47:05.621Z,100093.34
2022-08-07T16:50:28.246Z,100084.47
2022-08-07T16:52:41.669Z,100091.13
2022-08-07T16:55:17.718Z,100104.84
2022-08-07T16:58:02.061Z,100099.22
2022-08-07T17:00:42.370Z,100081.63
2022-08-07T17:03:19.547Z,100096.09
2022-08-07T17:06:42.727Z,100102.06
2022-08-07T17:10:05.448Z,100103.13
2022-08-07T17:12:33.903Z,100093.00
2022-08-07T17:15:19.918Z,100105.25
2022-08-07T17:17:47.507Z,100112.72
2022-08-07T17:20:37.358Z,100108.81
2022-08-07T17:23:35.993Z,100121.16
2022-08-07T17:26:22.569Z,100118.94
2022-08-07T17:28:57.283Z,100116.63
2022-08-07T17:31:44.234Z,100106.03
2022-08-07T17:34:57.075Z,100094.06
2022-08-07T17:38:06.078Z,100096.63
2022-08-07T17:41:12.342Z,100105.34
2022-08-07T17:44:01.622Z,100106.09
2022-08-07T17:47:09.055Z,100103.09
2022-08-07T17:50:16.628Z,100121.56
2022-08-07T17:53:59.654Z,100118.50
2022-08-07T17:56:13.617Z,100119.88
2022-08-07T17:58:56.935Z,100120.06
2022-08-07T18:01:36.867Z,100121.72
2022-08-07T18:04:34.695Z,100125.31
2022-08-07T18:07:20.234Z,100130.72
2022-08-07T18:10:05.856Z,100115.00
2022-08-07T18:12:55.593Z,100124.78
2022-08-07T18:15:32.814Z,100139.44
2022-08-07T18:18:46.695Z,100150.22
2022-08-07T18:21:37.088Z,100148.16
2022-08-07T18:24:09.015Z,100158.44
2022-08-07T18:27:11.741Z,100150.84
2022-08-07T18:30:05.702Z,100154.41
2022-08-07T18:33:11.976Z,100154.66
2022-08-07T18:35:57.401Z,100154.50
2022-08-07T18:38:58.894Z,100150.75
2022-08-07T18:41:48.863Z,100158.81
2022-08-07T18:45:44.168Z,100150.78
2022-08-07T18:48:00.765Z,100156.50
2022-08-07T18:50:47.076Z,100165.28
2022-08-07T18:53:39.259Z,100132.72
2022-08-07T18:56:40.665Z,100167.91
2022-08-07T18:59:46.965Z,100168.47
2022-08-07T19:02:52.628Z,100169.63
2022-08-07T19:06:01.852Z,100171.56
2022-08-07T19:08:29.012Z,100154.75
2022-08-07T19:11:15.535Z,100179.06
2022-08-07T19:14:17.361Z,100173.81
2022-08-07T19:17:05.612Z,100172.63
2022-08-07T19:19:50.190Z,100179.72
2022-08-07T19:22:30.345Z,100179.72
2022-08-07T19:25:05.682Z,100193.66
2022-08-07T19:28:57.061Z,100189.78
2022-08-07T19:31:04.458Z,100198.97
2022-08-07T19:33:18.956Z,100202.41
2022-08-07T19:36:01.815Z,100183.72
2022-08-07T19:38:34.110Z,100205.59
2022-08-07T19:41:02.753Z,100189.09
2022-08-07T19:43:48.612Z,100207.66
2022-08-07T19:46:26.793Z,100201.13
2022-08-07T19:49:57.581Z,100213.97
2022-08-07T19:52:09.869Z,100205.13
2022-08-07T19:54:56.556Z,100213.06
2022-08-07T19:58:03.045Z,100215.41
2022-08-07T20:00:36.602Z,100200.69
2022-08-07T20:03:35.453Z,100216.50
2022-08-07T20:06:03.572Z,100214.88
2022-08-07T20:08:34.527Z,100208.09
2022-08-07T20:11:15.087Z,100190.50
2022-08-07T20:13:56.529Z,100233.06
2022-08-07T20:16:36.450Z,100225.75
2022-08-07T20:19:10.118Z,100229.88
2022-08-07T20:21:46.619Z,100229.88
2022-08-07T20:24:28.619Z,100232.81
2022-08-07T20:27:02.697Z,100229.81
2022-08-07T20:29:48.338Z,100220.50
2022-08-07T20:32:40.388Z,100234.81
2022-08-07T20:35:15.919Z,100243.19
2022-08-07T20:37:59.113Z,100230.72
2022-08-07T20:40:34.650Z,100221.28
2022-08-07T20:43:09.494Z,100236.13
2022-08-07T20:46:26.007Z,100235.88
2022-08-07T20:48:34.679Z,100235.03
2022-08-07T20:51:04.111Z,100254.66
2022-08-07T20:54:03.946Z,100259.03
2022-08-07T20:56:29.049Z,100229.38
2022-08-07T20:59:01.782Z,100226.84
2022-08-07T21:01:45.829Z,100249.75
2022-08-07T21:04:22.370Z,100241.09
2022-08-07T21:06:55.330Z,100239.66
2022-08-07T21:09:35.338Z,100240.41
2022-08-07T21:12:28.916Z,100249.75
2022-08-07T21:14:59.710Z,100247.06
2022-08-07T21:18:03.269Z,100255.56
2022-08-07T21:20:29.701Z,100251.03
2022-08-07T21:23:08.138Z,100248.50
2022-08-07T21:25:38.898Z,100257.88
2022-08-07T21:28:50.103Z,100262.41
2022-08-07T21:32:41.918Z,100269.06
2022-08-07T21:34:46.106Z,100278.97
2022-08-07T21:37:57.886Z,100270.75
2022-08-07T21:40:41.101Z,100269.72
2022-08-07T21:43:23.268Z,100275.25
2022-08-07T21:46:24.582Z,100253.03
2022-08-07T21:49:15.165Z,100282.03
2022-08-07T21:52:01.713Z,100287.28
2022-08-07T21:54:34.480Z,100285.88
2022-08-07T21:57:31.279Z,100283.47
2022-08-07T22:00:22.074Z,100276.53
2022-08-07T22:03:16.707Z,100269.72
2022-08-07T22:06:04.030Z,100272.53
2022-08-07T22:08:46.474Z,100269.69
2022-08-07T22:11:18.406Z,100261.47
2022-08-07T22:13:55.101Z,100266.63
2022-08-07T22:17:00.125Z,100284.28
2022-08-07T22:19:37.119Z,100280.69
2022-08-07T22:22:29.153Z,100275.34
2022-08-07T22:25:07.496Z,100275.91
2022-08-07T22:28:07.464Z,100268.41
2022-08-07T22:31:05.610Z,100264.88
2022-08-07T22:33:56.254Z,100272.38
2022-08-07T22:36:38.474Z,100276.31
2022-08-07T22:39:28.872Z,100258.31
2022-08-07T22:42:54.097Z,100272.63
2022-08-07T22:45:11.020Z,100275.84
2022-08-07T22:48:13.666Z,100278.00
2022-08-07T22:51:36.705Z,100271.91
2022-08-07T22:54:20.237Z,100276.31
2022-08-07T22:57:17.025Z,100249.94
2022-08-07T23:00:13.601Z,100267.13
2022-08-07T23:03:02.343Z,100269.88
2022-08-07T23:06:08.273Z,100262.78
2022-08-07T23:10:06.454Z,100271.84
2022-08-07T23:12:32.753Z,100276.31
2022-08-07T23:16:05.432Z,100260.25
2022-08-07T23:18:42.334Z,100274.38
2022-08-07T23:21:37.016Z,100265.16
2022-08-07T23:24:05.888Z,100270.00
2022-08-07T23:26:59.184Z,100259.50
2022-08-07T23:30:36.128Z,100262.19
2022-08-07T23:34:36.192Z,100255.25
2022-08-07T23:36:17.231Z,100269.03
2022-08-07T23:39:14.941Z,100267.47
2022-08-07T23:42:07.055Z,100267.19
2022-08-07T23:44:55.980Z,100265.25
2022-08-07T23:47:42.110Z,100282.88
2022-08-07T23:50:35.368Z,100283.72
2022-08-07T23:53:51.576Z,100275.47
2022-08-07T23:56:26.871Z,100268.69
2022-08-07T23:59:10.693Z,100257.06
